aviador You're here:

LFQG Decoded Metar

NEVERS in FRANCE
Report Time2017-11-20 13:00:00
UTC Time2017-11-20 13:34:04
Flight Rules ifr IFR
Wind140° at 06 kt
W.Decomp.*RWY 12: 5.6 kt HW 2.1 kt RCW
W.Rank140° ranks 8
Current wind is below 140° avg. (6.3)
Visibility9999 m
Phenomena:N/A
Clouds:Overcast 007 Hf
Expected CloudBase > 800 ft AGL from Temp-Dew spread
Ceiling700 ft
Temp07°C (ISA -7)
Dew Point05°C (87% RH)
AAT3.7°C
QNH1024 hPa
Density Alt-479 ft
Elevation594 ft
Report Wrong Elevation
Raw Report
METAR LFQG 201300Z AUTO 14006KT 9999 OVC007 07/05 Q1024=

Extra information for LFQG:More info

Metar Taf Metar & Taf Last 4 Metars F.Rules Stats Wind Profile Meteogram Temp Stats Airport Information Weather charts Add Link Nearby VenuesMetar ALERT Operation Metar Decoded Social comments